sensor_id;sensor_type;location;lat;lon;timestamp;P1;durP1;ratioP1;P2;durP2;ratioP2
41685;SDS011;27370;42.764;23.432;2023-04-01T00:02:06;14.73;;;7.43;;
41685;SDS011;27370;42.764;23.432;2023-04-01T00:04:31;17.33;;;7.97;;
41685;SDS011;27370;42.764;23.432;2023-04-01T00:06:57;13.75;;;7.10;;
41685;SDS011;27370;42.764;23.432;2023-04-01T00:09:23;17.15;;;7.70;;
41685;SDS011;27370;42.764;23.432;2023-04-01T00:11:48;16.48;;;7.60;;
41685;SDS011;27370;42.764;23.432;2023-04-01T00:14:14;16.98;;;7.55;;
41685;SDS011;27370;42.764;23.432;2023-04-01T00:16:40;14.10;;;7.47;;
41685;SDS011;27370;42.764;23.432;2023-04-01T00:19:05;16.75;;;7.45;;
41685;SDS011;27370;42.764;23.432;2023-04-01T00:21:31;13.38;;;7.40;;
41685;SDS011;27370;42.764;23.432;2023-04-01T00:23:56;15.50;;;7.75;;
41685;SDS011;27370;42.764;23.432;2023-04-01T00:26:22;13.40;;;7.25;;
41685;SDS011;27370;42.764;23.432;2023-04-01T00:28:49;15.02;;;7.15;;
41685;SDS011;27370;42.764;23.432;2023-04-01T00:31:15;14.20;;;7.40;;
41685;SDS011;27370;42.764;23.432;2023-04-01T00:33:41;16.38;;;7.68;;
41685;SDS011;27370;42.764;23.432;2023-04-01T00:38:41;17.90;;;8.00;;
41685;SDS011;27370;42.764;23.432;2023-04-01T00:41:07;24.80;;;12.68;;
41685;SDS011;27370;42.764;23.432;2023-04-01T00:43:34;27.67;;;16.40;;
41685;SDS011;27370;42.764;23.432;2023-04-01T00:46:00;27.95;;;14.90;;
41685;SDS011;27370;42.764;23.432;2023-04-01T00:48:30;22.95;;;13.27;;
41685;SDS011;27370;42.764;23.432;2023-04-01T00:51:06;23.10;;;13.30;;
41685;SDS011;27370;42.764;23.432;2023-04-01T00:53:36;21.58;;;11.38;;
41685;SDS011;27370;42.764;23.432;2023-04-01T00:56:10;21.60;;;12.20;;
41685;SDS011;27370;42.764;23.432;2023-04-01T00:58:46;22.77;;;12.52;;
41685;SDS011;27370;42.764;23.432;2023-04-01T01:01:16;20.73;;;12.20;;
41685;SDS011;27370;42.764;23.432;2023-04-01T01:03:42;20.42;;;10.85;;
41685;SDS011;27370;42.764;23.432;2023-04-01T01:09:33;21.23;;;11.10;;
41685;SDS011;27370;42.764;23.432;2023-04-01T01:17:23;19.42;;;10.43;;
41685;SDS011;27370;42.764;23.432;2023-04-01T01:22:44;16.77;;;9.85;;
41685;SDS011;27370;42.764;23.432;2023-04-01T01:36:35;18.23;;;10.32;;
41685;SDS011;27370;42.764;23.432;2023-04-01T01:39:07;16.80;;;9.40;;
41685;SDS011;27370;42.764;23.432;2023-04-01T01:41:35;16.92;;;9.10;;
41685;SDS011;27370;42.764;23.432;2023-04-01T01:44:03;15.23;;;9.13;;
41685;SDS011;27370;42.764;23.432;2023-04-01T01:46:32;15.63;;;8.75;;
41685;SDS011;27370;42.764;23.432;2023-04-01T01:48:58;19.05;;;9.75;;
41685;SDS011;27370;42.764;23.432;2023-04-01T01:51:26;17.40;;;9.38;;
41685;SDS011;27370;42.764;23.432;2023-04-01T01:53:53;15.95;;;8.75;;
41685;SDS011;27370;42.764;23.432;2023-04-01T01:56:20;19.10;;;8.27;;
41685;SDS011;27370;42.764;23.432;2023-04-01T01:58:52;16.75;;;8.30;;
41685;SDS011;27370;42.764;23.432;2023-04-01T02:01:25;19.60;;;8.15;;
41685;SDS011;27370;42.764;23.432;2023-04-01T02:03:56;18.58;;;8.68;;
41685;SDS011;27370;42.764;23.432;2023-04-01T02:06:24;15.98;;;8.02;;
41685;SDS011;27370;42.764;23.432;2023-04-01T02:11:36;15.40;;;7.82;;
41685;SDS011;27370;42.764;23.432;2023-04-01T02:16:54;15.68;;;7.40;;
41685;SDS011;27370;42.764;23.432;2023-04-01T02:19:27;16.70;;;7.97;;
41685;SDS011;27370;42.764;23.432;2023-04-01T02:21:59;16.77;;;7.90;;
41685;SDS011;27370;42.764;23.432;2023-04-01T02:24:28;15.73;;;7.32;;
41685;SDS011;27370;42.764;23.432;2023-04-01T02:26:56;23.10;;;8.70;;
41685;SDS011;27370;42.764;23.432;2023-04-01T02:29:22;13.95;;;7.75;;
41685;SDS011;27370;42.764;23.432;2023-04-01T02:31:50;14.85;;;7.43;;
41685;SDS011;27370;42.764;23.432;2023-04-01T02:34:18;15.57;;;7.90;;
41685;SDS011;27370;42.764;23.432;2023-04-01T02:36:45;14.40;;;7.00;;
41685;SDS011;27370;42.764;23.432;2023-04-01T02:39:13;16.95;;;7.88;;
41685;SDS011;27370;42.764;23.432;2023-04-01T02:41:39;13.40;;;7.72;;
41685;SDS011;27370;42.764;23.432;2023-04-01T02:44:06;17.20;;;8.20;;
41685;SDS011;27370;42.764;23.432;2023-04-01T02:46:32;16.08;;;8.38;;
41685;SDS011;27370;42.764;23.432;2023-04-01T02:48:58;14.88;;;7.45;;
41685;SDS011;27370;42.764;23.432;2023-04-01T02:51:25;13.93;;;8.00;;
41685;SDS011;27370;42.764;23.432;2023-04-01T02:53:50;19.48;;;9.00;;
41685;SDS011;27370;42.764;23.432;2023-04-01T02:56:16;16.73;;;8.68;;
41685;SDS011;27370;42.764;23.432;2023-04-01T02:58:42;15.95;;;7.80;;
41685;SDS011;27370;42.764;23.432;2023-04-01T03:01:08;15.35;;;7.97;;
41685;SDS011;27370;42.764;23.432;2023-04-01T03:03:33;20.17;;;8.98;;
41685;SDS011;27370;42.764;23.432;2023-04-01T03:06:04;16.45;;;8.55;;
41685;SDS011;27370;42.764;23.432;2023-04-01T03:08:31;17.20;;;8.63;;
41685;SDS011;27370;42.764;23.432;2023-04-01T03:10:57;18.10;;;9.02;;
41685;SDS011;27370;42.764;23.432;2023-04-01T03:13:22;16.02;;;8.25;;
41685;SDS011;27370;42.764;23.432;2023-04-01T03:15:48;14.32;;;7.55;;
41685;SDS011;27370;42.764;23.432;2023-04-01T03:18:13;19.45;;;8.18;;
41685;SDS011;27370;42.764;23.432;2023-04-01T03:20:39;15.27;;;8.02;;
41685;SDS011;27370;42.764;23.432;2023-04-01T03:23:05;17.75;;;8.20;;
41685;SDS011;27370;42.764;23.432;2023-04-01T03:25:30;17.40;;;7.88;;
41685;SDS011;27370;42.764;23.432;2023-04-01T03:27:56;14.80;;;7.35;;
41685;SDS011;27370;42.764;23.432;2023-04-01T03:30:24;14.18;;;6.80;;
41685;SDS011;27370;42.764;23.432;2023-04-01T03:32:50;14.10;;;6.55;;
41685;SDS011;27370;42.764;23.432;2023-04-01T03:35:15;13.88;;;7.22;;
41685;SDS011;27370;42.764;23.432;2023-04-01T03:37:41;15.02;;;8.02;;
41685;SDS011;27370;42.764;23.432;2023-04-01T03:40:07;19.10;;;8.50;;
41685;SDS011;27370;42.764;23.432;2023-04-01T03:42:33;16.42;;;8.10;;
41685;SDS011;27370;42.764;23.432;2023-04-01T03:45:00;20.90;;;12.32;;
41685;SDS011;27370;42.764;23.432;2023-04-01T03:47:25;121.05;;;61.63;;
41685;SDS011;27370;42.764;23.432;2023-04-01T03:49:51;62.53;;;32.28;;
41685;SDS011;27370;42.764;23.432;2023-04-01T03:52:16;19.25;;;11.05;;
41685;SDS011;27370;42.764;23.432;2023-04-01T03:54:42;18.05;;;9.05;;
41685;SDS011;27370;42.764;23.432;2023-04-01T03:57:08;16.35;;;8.90;;
41685;SDS011;27370;42.764;23.432;2023-04-01T03:59:34;18.10;;;10.10;;
41685;SDS011;27370;42.764;23.432;2023-04-01T04:01:59;20.48;;;10.35;;
41685;SDS011;27370;42.764;23.432;2023-04-01T04:04:25;16.33;;;9.50;;
41685;SDS011;27370;42.764;23.432;2023-04-01T04:06:51;23.30;;;11.25;;
41685;SDS011;27370;42.764;23.432;2023-04-01T04:09:18;21.48;;;12.60;;
41685;SDS011;27370;42.764;23.432;2023-04-01T04:11:44;21.15;;;11.30;;
41685;SDS011;27370;42.764;23.432;2023-04-01T04:14:09;21.20;;;10.80;;
41685;SDS011;27370;42.764;23.432;2023-04-01T04:16:35;18.33;;;9.63;;
41685;SDS011;27370;42.764;23.432;2023-04-01T04:19:04;18.25;;;8.98;;
41685;SDS011;27370;42.764;23.432;2023-04-01T04:21:30;17.27;;;8.95;;
41685;SDS011;27370;42.764;23.432;2023-04-01T04:23:55;17.05;;;9.63;;
41685;SDS011;27370;42.764;23.432;2023-04-01T04:26:21;17.40;;;9.15;;
41685;SDS011;27370;42.764;23.432;2023-04-01T04:28:54;19.05;;;8.60;;
41685;SDS011;27370;42.764;23.432;2023-04-01T04:31:21;18.85;;;8.52;;
41685;SDS011;27370;42.764;23.432;2023-04-01T04:33:49;15.32;;;7.95;;
41685;SDS011;27370;42.764;23.432;2023-04-01T04:36:14;19.50;;;8.63;;
41685;SDS011;27370;42.764;23.432;2023-04-01T04:38:40;18.15;;;7.47;;
41685;SDS011;27370;42.764;23.432;2023-04-01T04:41:10;17.17;;;7.85;;
41685;SDS011;27370;42.764;23.432;2023-04-01T04:43:38;12.70;;;6.93;;
41685;SDS011;27370;42.764;23.432;2023-04-01T04:46:06;14.18;;;6.70;;
41685;SDS011;27370;42.764;23.432;2023-04-01T04:48:33;15.52;;;7.15;;
41685;SDS011;27370;42.764;23.432;2023-04-01T04:50:58;15.23;;;6.90;;
41685;SDS011;27370;42.764;23.432;2023-04-01T04:53:24;17.85;;;6.53;;
41685;SDS011;27370;42.764;23.432;2023-04-01T04:55:51;11.75;;;5.65;;
41685;SDS011;27370;42.764;23.432;2023-04-01T04:58:33;12.13;;;5.18;;
41685;SDS011;27370;42.764;23.432;2023-04-01T05:01:05;14.15;;;5.70;;
41685;SDS011;27370;42.764;23.432;2023-04-01T05:03:36;11.43;;;5.72;;
41685;SDS011;27370;42.764;23.432;2023-04-01T05:06:02;13.55;;;5.85;;
41685;SDS011;27370;42.764;23.432;2023-04-01T05:08:28;10.85;;;5.63;;
41685;SDS011;27370;42.764;23.432;2023-04-01T05:10:54;13.95;;;5.25;;
41685;SDS011;27370;42.764;23.432;2023-04-01T05:13:20;11.80;;;5.50;;
41685;SDS011;27370;42.764;23.432;2023-04-01T05:15:46;25.23;;;12.60;;
41685;SDS011;27370;42.764;23.432;2023-04-01T05:18:12;22.23;;;13.63;;
41685;SDS011;27370;42.764;23.432;2023-04-01T05:20:37;20.33;;;11.68;;
41685;SDS011;27370;42.764;23.432;2023-04-01T05:23:03;20.00;;;10.38;;
41685;SDS011;27370;42.764;23.432;2023-04-01T05:25:29;27.33;;;13.10;;
41685;SDS011;27370;42.764;23.432;2023-04-01T05:27:57;30.88;;;14.63;;
41685;SDS011;27370;42.764;23.432;2023-04-01T05:30:23;28.67;;;14.40;;
41685;SDS011;27370;42.764;23.432;2023-04-01T05:33:12;27.95;;;13.25;;
41685;SDS011;27370;42.764;23.432;2023-04-01T05:35:38;20.23;;;10.05;;
41685;SDS011;27370;42.764;23.432;2023-04-01T05:38:05;17.92;;;9.38;;
41685;SDS011;27370;42.764;23.432;2023-04-01T05:40:31;19.88;;;8.15;;
41685;SDS011;27370;42.764;23.432;2023-04-01T05:42:57;20.85;;;9.40;;
41685;SDS011;27370;42.764;23.432;2023-04-01T05:45:23;15.20;;;7.65;;
41685;SDS011;27370;42.764;23.432;2023-04-01T05:47:58;14.55;;;7.50;;
41685;SDS011;27370;42.764;23.432;2023-04-01T05:50:26;14.93;;;7.07;;
41685;SDS011;27370;42.764;23.432;2023-04-01T05:52:51;17.30;;;7.78;;
41685;SDS011;27370;42.764;23.432;2023-04-01T05:55:18;12.55;;;6.85;;
41685;SDS011;27370;42.764;23.432;2023-04-01T05:57:45;15.23;;;7.00;;
41685;SDS011;27370;42.764;23.432;2023-04-01T06:00:12;16.15;;;7.75;;
41685;SDS011;27370;42.764;23.432;2023-04-01T06:02:39;12.52;;;6.72;;
41685;SDS011;27370;42.764;23.432;2023-04-01T06:05:14;13.73;;;6.00;;
41685;SDS011;27370;42.764;23.432;2023-04-01T06:07:40;16.00;;;7.22;;
41685;SDS011;27370;42.764;23.432;2023-04-01T06:10:12;14.57;;;7.45;;
41685;SDS011;27370;42.764;23.432;2023-04-01T06:15:37;17.45;;;8.30;;
41685;SDS011;27370;42.764;23.432;2023-04-01T06:18:25;17.42;;;8.93;;
41685;SDS011;27370;42.764;23.432;2023-04-01T06:32:06;15.18;;;6.13;;
41685;SDS011;27370;42.764;23.432;2023-04-01T06:42:52;10.85;;;5.57;;
41685;SDS011;27370;42.764;23.432;2023-04-01T06:46:03;12.05;;;4.40;;
41685;SDS011;27370;42.764;23.432;2023-04-01T06:51:44;11.52;;;4.40;;
41685;SDS011;27370;42.764;23.432;2023-04-01T06:54:44;14.68;;;4.90;;
41685;SDS011;27370;42.764;23.432;2023-04-01T06:57:43;7.78;;;2.97;;
41685;SDS011;27370;42.764;23.432;2023-04-01T07:00:22;10.32;;;3.28;;
41685;SDS011;27370;42.764;23.432;2023-04-01T07:05:52;7.57;;;2.70;;
41685;SDS011;27370;42.764;23.432;2023-04-01T07:08:23;6.35;;;2.30;;
41685;SDS011;27370;42.764;23.432;2023-04-01T07:11:03;10.02;;;2.72;;
41685;SDS011;27370;42.764;23.432;2023-04-01T07:13:54;5.72;;;2.10;;
41685;SDS011;27370;42.764;23.432;2023-04-01T07:16:32;5.45;;;2.38;;
41685;SDS011;27370;42.764;23.432;2023-04-01T07:22:02;8.50;;;3.08;;
41685;SDS011;27370;42.764;23.432;2023-04-01T07:24:50;7.72;;;3.20;;
41685;SDS011;27370;42.764;23.432;2023-04-01T07:27:17;9.90;;;3.30;;
41685;SDS011;27370;42.764;23.432;2023-04-01T07:29:43;8.10;;;2.67;;
41685;SDS011;27370;42.764;23.432;2023-04-01T07:51:50;11.15;;;3.58;;
41685;SDS011;27370;42.764;23.432;2023-04-01T08:17:39;7.13;;;3.30;;
41685;SDS011;27370;42.764;23.432;2023-04-01T08:20:33;7.82;;;3.22;;
41685;SDS011;27370;42.764;23.432;2023-04-01T08:23:05;10.57;;;2.67;;
41685;SDS011;27370;42.764;23.432;2023-04-01T08:25:40;8.23;;;2.85;;
41685;SDS011;27370;42.764;23.432;2023-04-01T08:28:24;8.45;;;2.75;;
41685;SDS011;27370;42.764;23.432;2023-04-01T08:30:56;7.07;;;2.45;;
41685;SDS011;27370;42.764;23.432;2023-04-01T08:33:30;7.45;;;3.00;;
41685;SDS011;27370;42.764;23.432;2023-04-01T08:36:05;9.63;;;3.03;;
41685;SDS011;27370;42.764;23.432;2023-04-01T08:38:57;7.88;;;3.20;;
41685;SDS011;27370;42.764;23.432;2023-04-01T08:41:48;7.53;;;3.00;;
41685;SDS011;27370;42.764;23.432;2023-04-01T08:51:01;7.50;;;3.13;;
41685;SDS011;27370;42.764;23.432;2023-04-01T08:56:20;7.38;;;3.20;;
41685;SDS011;27370;42.764;23.432;2023-04-01T09:04:25;7.32;;;2.90;;
41685;SDS011;27370;42.764;23.432;2023-04-01T09:12:29;7.35;;;2.60;;
41685;SDS011;27370;42.764;23.432;2023-04-01T09:26:27;6.97;;;3.30;;
41685;SDS011;27370;42.764;23.432;2023-04-01T09:40:23;10.52;;;3.80;;
41685;SDS011;27370;42.764;23.432;2023-04-01T09:45:53;9.85;;;4.32;;
41685;SDS011;27370;42.764;23.432;2023-04-01T09:54:32;6.63;;;2.50;;
41685;SDS011;27370;42.764;23.432;2023-04-01T10:00:43;7.75;;;2.60;;
41685;SDS011;27370;42.764;23.432;2023-04-01T10:27:42;8.98;;;2.78;;
41685;SDS011;27370;42.764;23.432;2023-04-01T10:33:10;6.35;;;2.55;;
41685;SDS011;27370;42.764;23.432;2023-04-01T11:16:53;9.45;;;2.80;;
41685;SDS011;27370;42.764;23.432;2023-04-01T11:31:41;9.93;;;3.83;;
41685;SDS011;27370;42.764;23.432;2023-04-01T11:42:37;9.95;;;4.53;;
41685;SDS011;27370;42.764;23.432;2023-04-01T11:46:03;15.45;;;4.22;;
41685;SDS011;27370;42.764;23.432;2023-04-01T11:54:43;8.60;;;2.35;;
41685;SDS011;27370;42.764;23.432;2023-04-01T12:08:57;7.82;;;2.85;;
41685;SDS011;27370;42.764;23.432;2023-04-01T12:16:59;13.45;;;4.28;;
41685;SDS011;27370;42.764;23.432;2023-04-01T12:19:43;3.53;;;1.55;;
41685;SDS011;27370;42.764;23.432;2023-04-01T12:33:23;0.25;;;0.25;;
41685;SDS011;27370;42.764;23.432;2023-04-01T12:36:06;2.03;;;1.45;;
41685;SDS011;27370;42.764;23.432;2023-04-01T12:41:52;0.25;;;0.25;;
41685;SDS011;27370;42.764;23.432;2023-04-01T13:06:24;1.23;;;0.50;;
41685;SDS011;27370;42.764;23.432;2023-04-01T13:09:13;0.20;;;0.20;;
41685;SDS011;27370;42.764;23.432;2023-04-01T13:11:49;1.38;;;1.27;;
41685;SDS011;27370;42.764;23.432;2023-04-01T13:17:27;0.20;;;0.20;;
41685;SDS011;27370;42.764;23.432;2023-04-01T13:28:20;1.02;;;0.93;;
41685;SDS011;27370;42.764;23.432;2023-04-01T13:31:05;0.60;;;0.55;;
41685;SDS011;27370;42.764;23.432;2023-04-01T13:33:53;2.25;;;0.55;;
41685;SDS011;27370;42.764;23.432;2023-04-01T13:44:33;1.10;;;0.95;;
41685;SDS011;27370;42.764;23.432;2023-04-01T14:09:25;0.20;;;0.20;;
41685;SDS011;27370;42.764;23.432;2023-04-01T14:35:12;1.20;;;0.80;;
41685;SDS011;27370;42.764;23.432;2023-04-01T14:43:30;0.10;;;0.10;;
41685;SDS011;27370;42.764;23.432;2023-04-01T14:48:35;0.38;;;0.38;;
41685;SDS011;27370;42.764;23.432;2023-04-01T14:51:15;0.30;;;0.30;;
41685;SDS011;27370;42.764;23.432;2023-04-01T14:56:35;0.20;;;0.20;;
41685;SDS011;27370;42.764;23.432;2023-04-01T14:59:01;0.30;;;0.30;;
41685;SDS011;27370;42.764;23.432;2023-04-01T15:01:45;0.47;;;0.47;;
41685;SDS011;27370;42.764;23.432;2023-04-01T15:08:13;0.10;;;0.10;;
41685;SDS011;27370;42.764;23.432;2023-04-01T15:13:43;0.20;;;0.20;;
41685;SDS011;27370;42.764;23.432;2023-04-01T15:32:47;0.10;;;0.10;;
41685;SDS011;27370;42.764;23.432;2023-04-01T15:35:34;3.30;;;1.85;;
41685;SDS011;27370;42.764;23.432;2023-04-01T15:38:06;1.02;;;0.63;;
41685;SDS011;27370;42.764;23.432;2023-04-01T15:43:26;0.50;;;0.50;;
41685;SDS011;27370;42.764;23.432;2023-04-01T15:45:58;0.47;;;0.47;;
41685;SDS011;27370;42.764;23.432;2023-04-01T15:48:55;0.77;;;0.65;;
41685;SDS011;27370;42.764;23.432;2023-04-01T15:56:53;0.10;;;0.10;;
41685;SDS011;27370;42.764;23.432;2023-04-01T16:00:23;1.90;;;0.75;;
41685;SDS011;27370;42.764;23.432;2023-04-01T16:23:47;0.22;;;0.22;;
41685;SDS011;27370;42.764;23.432;2023-04-01T16:26:31;0.20;;;0.20;;
41685;SDS011;27370;42.764;23.432;2023-04-01T16:29:17;0.20;;;0.20;;
41685;SDS011;27370;42.764;23.432;2023-04-01T16:31:53;0.22;;;0.22;;
41685;SDS011;27370;42.764;23.432;2023-04-01T16:34:30;0.20;;;0.20;;
41685;SDS011;27370;42.764;23.432;2023-04-01T16:37:21;0.75;;;0.70;;
41685;SDS011;27370;42.764;23.432;2023-04-01T16:40:12;0.38;;;0.38;;
41685;SDS011;27370;42.764;23.432;2023-04-01T16:42:54;0.38;;;0.38;;
41685;SDS011;27370;42.764;23.432;2023-04-01T16:46:15;0.83;;;0.77;;
41685;SDS011;27370;42.764;23.432;2023-04-01T16:51:22;1.40;;;0.77;;
41685;SDS011;27370;42.764;23.432;2023-04-01T16:53:53;0.38;;;0.38;;
41685;SDS011;27370;42.764;23.432;2023-04-01T16:56:39;1.48;;;0.65;;
41685;SDS011;27370;42.764;23.432;2023-04-01T17:04:35;0.68;;;0.68;;
41685;SDS011;27370;42.764;23.432;2023-04-01T17:28:36;0.20;;;0.20;;
41685;SDS011;27370;42.764;23.432;2023-04-01T17:39:24;0.77;;;0.77;;
41685;SDS011;27370;42.764;23.432;2023-04-01T17:42:21;0.30;;;0.30;;
41685;SDS011;27370;42.764;23.432;2023-04-01T17:51:38;0.25;;;0.25;;
41685;SDS011;27370;42.764;23.432;2023-04-01T18:01:54;0.55;;;0.55;;
41685;SDS011;27370;42.764;23.432;2023-04-01T18:12:38;2.38;;;1.13;;
41685;SDS011;27370;42.764;23.432;2023-04-01T18:18:42;0.30;;;0.30;;
41685;SDS011;27370;42.764;23.432;2023-04-01T18:24:31;0.47;;;0.47;;
41685;SDS011;27370;42.764;23.432;2023-04-01T18:27:15;0.30;;;0.30;;
41685;SDS011;27370;42.764;23.432;2023-04-01T18:29:48;1.65;;;0.40;;
41685;SDS011;27370;42.764;23.432;2023-04-01T18:32:30;0.22;;;0.22;;
41685;SDS011;27370;42.764;23.432;2023-04-01T18:40:45;0.25;;;0.25;;
41685;SDS011;27370;42.764;23.432;2023-04-01T18:51:20;0.10;;;0.10;;
41685;SDS011;27370;42.764;23.432;2023-04-01T18:56:37;0.20;;;0.20;;
41685;SDS011;27370;42.764;23.432;2023-04-01T18:59:25;0.22;;;0.22;;
41685;SDS011;27370;42.764;23.432;2023-04-01T19:02:08;0.20;;;0.20;;
41685;SDS011;27370;42.764;23.432;2023-04-01T19:04:45;0.70;;;0.40;;
41685;SDS011;27370;42.764;23.432;2023-04-01T19:15:34;0.52;;;0.52;;
41685;SDS011;27370;42.764;23.432;2023-04-01T19:27:29;0.73;;;0.73;;
41685;SDS011;27370;42.764;23.432;2023-04-01T19:38:12;0.20;;;0.20;;
41685;SDS011;27370;42.764;23.432;2023-04-01T19:46:40;0.43;;;0.43;;
41685;SDS011;27370;42.764;23.432;2023-04-01T19:49:29;0.30;;;0.30;;
41685;SDS011;27370;42.764;23.432;2023-04-01T20:02:36;0.17;;;0.17;;
41685;SDS011;27370;42.764;23.432;2023-04-01T20:05:17;0.40;;;0.40;;
41685;SDS011;27370;42.764;23.432;2023-04-01T20:08:40;0.35;;;0.35;;
41685;SDS011;27370;42.764;23.432;2023-04-01T20:11:14;0.30;;;0.30;;
41685;SDS011;27370;42.764;23.432;2023-04-01T20:16:47;0.60;;;0.60;;
41685;SDS011;27370;42.764;23.432;2023-04-01T20:19:19;0.22;;;0.22;;
41685;SDS011;27370;42.764;23.432;2023-04-01T20:21:51;0.55;;;0.55;;
41685;SDS011;27370;42.764;23.432;2023-04-01T20:24:41;0.85;;;0.70;;
41685;SDS011;27370;42.764;23.432;2023-04-01T20:32:48;2.90;;;1.05;;
41685;SDS011;27370;42.764;23.432;2023-04-01T20:41:02;0.50;;;0.50;;
41685;SDS011;27370;42.764;23.432;2023-04-01T20:43:33;0.20;;;0.20;;
41685;SDS011;27370;42.764;23.432;2023-04-01T20:49:26;0.30;;;0.30;;
41685;SDS011;27370;42.764;23.432;2023-04-01T21:00:34;0.20;;;0.20;;
41685;SDS011;27370;42.764;23.432;2023-04-01T21:05:56;1.30;;;0.82;;
41685;SDS011;27370;42.764;23.432;2023-04-01T21:17:10;0.25;;;0.25;;
41685;SDS011;27370;42.764;23.432;2023-04-01T21:22:20;0.15;;;0.15;;
41685;SDS011;27370;42.764;23.432;2023-04-01T21:36:32;0.25;;;0.25;;
41685;SDS011;27370;42.764;23.432;2023-04-01T22:06:40;0.35;;;0.35;;
41685;SDS011;27370;42.764;23.432;2023-04-01T22:09:55;0.40;;;0.40;;
41685;SDS011;27370;42.764;23.432;2023-04-01T22:20:40;0.52;;;0.52;;
41685;SDS011;27370;42.764;23.432;2023-04-01T22:25:44;0.40;;;0.40;;
41685;SDS011;27370;42.764;23.432;2023-04-01T22:28:29;0.63;;;0.55;;
41685;SDS011;27370;42.764;23.432;2023-04-01T22:31:00;2.10;;;1.52;;
41685;SDS011;27370;42.764;23.432;2023-04-01T22:33:32;0.20;;;0.20;;
41685;SDS011;27370;42.764;23.432;2023-04-01T22:36:17;0.47;;;0.47;;
41685;SDS011;27370;42.764;23.432;2023-04-01T22:42:05;0.60;;;0.52;;
41685;SDS011;27370;42.764;23.432;2023-04-01T22:47:04;0.52;;;0.52;;
41685;SDS011;27370;42.764;23.432;2023-04-01T22:49:45;0.32;;;0.32;;
41685;SDS011;27370;42.764;23.432;2023-04-01T22:52:30;0.70;;;0.70;;
41685;SDS011;27370;42.764;23.432;2023-04-01T22:55:00;0.47;;;0.47;;
41685;SDS011;27370;42.764;23.432;2023-04-01T23:00:07;0.73;;;0.73;;
41685;SDS011;27370;42.764;23.432;2023-04-01T23:02:39;0.10;;;0.10;;
41685;SDS011;27370;42.764;23.432;2023-04-01T23:05:09;0.30;;;0.30;;
41685;SDS011;27370;42.764;23.432;2023-04-01T23:13:10;0.30;;;0.30;;
41685;SDS011;27370;42.764;23.432;2023-04-01T23:15:43;0.20;;;0.20;;
41685;SDS011;27370;42.764;23.432;2023-04-01T23:28:55;0.35;;;0.35;;
41685;SDS011;27370;42.764;23.432;2023-04-01T23:36:21;0.43;;;0.43;;
41685;SDS011;27370;42.764;23.432;2023-04-01T23:38:47;0.22;;;0.22;;
41685;SDS011;27370;42.764;23.432;2023-04-01T23:41:22;0.20;;;0.20;;
41685;SDS011;27370;42.764;23.432;2023-04-01T23:44:12;1.10;;;0.50;;
41685;SDS011;27370;42.764;23.432;2023-04-01T23:46:38;0.15;;;0.15;;
41685;SDS011;27370;42.764;23.432;2023-04-01T23:49:06;2.33;;;0.88;;
41685;SDS011;27370;42.764;23.432;2023-04-01T23:51:46;0.20;;;0.20;;
41685;SDS011;27370;42.764;23.432;2023-04-01T23:54:19;1.38;;;0.90;;
41685;SDS011;27370;42.764;23.432;2023-04-01T23:56:54;0.50;;;0.50;;
41685;SDS011;27370;42.764;23.432;2023-04-01T23:59:28;0.32;;;0.32;;
